Date,TemperatureHighF,TemperatureAvgF,TemperatureLowF,DewpointHighF,DewpointAvgF,DewpointLowF,HumidityHigh,HumidityAvg,HumidityLow,PressureMaxIn,PressureMinIn,WindSpeedMaxMPH,WindSpeedAvgMPH,GustSpeedMaxMPH,PrecipitationSumIn
2012-12-1,31,28,24,31,17,-100,99,91,36,0.00,40.00,0,-999,0,0.00
2012-12-2,48,39,30,47,39,30,99,99,99,0.00,40.00,0,-999,0,0.00
2012-12-3,53,45,33,50,44,33,99,97,81,0.00,40.00,0,-999,0,0.00
2012-12-4,54,42,29,54,42,29,99,99,99,0.00,40.00,0,-999,0,0.00
2012-12-5,54,44,29,54,36,-100,99,77,48,0.00,40.00,0,-999,0,0.00
2012-12-6,35,28,21,21,0,-100,98,68,43,0.00,40.00,0,-999,0,0.00
2012-12-7,40,32,21,40,32,20,99,99,93,0.00,40.00,0,-999,0,0.00
2012-12-8,43,41,39,43,41,39,99,99,99,0.00,40.00,0,-999,0,0.00
2012-12-9,42,38,35,42,38,35,99,99,95,0.00,40.00,0,-999,0,0.00
2012-12-10,55,46,37,55,46,37,99,99,99,0.00,40.00,0,-999,0,0.00
2012-12-11,49,38,27,48,32,20,99,83,53,0.00,40.00,0,-999,0,0.00
2012-12-12,34,28,24,28,24,19,99,90,62,0.00,40.00,0,-999,0,0.00
2012-12-13,37,27,21,32,23,19,99,90,51,0.00,40.00,0,-999,0,0.00
2012-12-14,40,29,20,32,18,-100,99,86,46,0.00,40.00,0,-999,0,0.00
2012-12-15,39,31,25,32,25,19,99,83,51,0.00,40.00,0,-999,0,0.00
2012-12-16,32,30,29,32,27,22,99,91,79,0.00,40.00,0,-999,0,0.00
2012-12-17,34,32,31,34,32,30,99,99,99,0.00,40.00,0,-999,0,0.00
2012-12-18,44,40,34,44,40,34,99,99,99,0.00,40.00,0,-999,0,0.00
2012-12-19,42,38,35,38,32,26,99,84,61,0.00,40.00,0,-999,0,0.00
2012-12-20,40,34,27,35,30,25,99,87,61,0.00,40.00,0,-999,0,0.00
2012-12-21,51,39,32,51,39,32,99,99,93,0.00,40.00,0,-999,0,0.00
2012-12-22,33,30,27,33,22,11,99,76,51,0.00,40.00,0,-999,0,0.00
2012-12-23,34,30,26,22,16,12,73,60,53,0.00,40.00,0,-999,0,0.00
2012-12-24,34,30,26,24,-2,-100,93,65,45,0.00,40.00,0,-999,0,0.00
2012-12-25,33,28,22,33,26,13,99,95,73,0.00,40.00,0,-999,0,0.00
2012-12-26,32,25,17,32,17,8,99,77,53,0.00,40.00,0,-999,0,0.00
2012-12-27,35,32,27,35,32,27,99,99,99,0.00,40.00,0,-999,0,0.00
2012-12-28,31,26,21,27,22,16,99,90,63,0.00,40.00,0,-999,0,0.00
2012-12-29,32,25,19,29,24,19,99,97,67,0.00,40.00,0,-999,0,0.00
2012-12-30,27,23,16,26,5,-100,99,74,48,0.00,40.00,0,-999,0,0.00
2012-12-31,32,24,15,21,15,3,96,74,59,0.00,40.00,0,-999,0,0.00